Weather observations for the past three days for
Providenciales
| Date | Time (edt) | Wind (mph) | Vis. (mi.) | Weather | Sky Cond. | Temperature (ºF) | Relative Humidity | Wind Chill (°F) | Heat Index (°F) | Pressure | Precipitation (in) | ||||||
|---|---|---|---|---|---|---|---|---|---|---|---|---|---|---|---|---|---|
| Air | Dwpt | 6 hour | altimeter (in) | sea level (mb) | 1 hr | 3 hr | 6 hr | ||||||||||
| Max. | Min. | ||||||||||||||||
| 02 | 09:00 | SE 7 | 0.00 | Partly Cloudy | SCT012 | 87.8 | 75.2 | 66% | 98 | 0 | 0.0 | ||||||
| 02 | 08:00 | SE 7 | 0.00 | Partly Cloudy | SCT012 | 84.2 | 75.2 | 74% | 92 | 0 | 0.0 | ||||||
| 02 | 07:00 | SE 7 | 0.00 | Mostly Cloudy | SCT012 BKN018 | 84.2 | 75.2 | 74% | 92 | 0 | 0.0 | ||||||
| 02 | 06:30 | E 7 | 0.00 | Partly Cloudy | SCT012 | 82.4 | 77 | 84% | 91 | 0 | 0.0 | ||||||
| 01 | 20:00 | E 5 | 0.00 | Partly Cloudy | SCT012 | 84.2 | 73.4 | 70% | 91 | 0 | 0.0 | ||||||
| 01 | 19:00 | E 7 | 0.00 | Partly Cloudy | SCT012 | 86 | 75.2 | 70% | 95 | 0 | 0.0 | ||||||
| 01 | 18:00 | E 8 | 0.00 | Partly Cloudy | SCT012 | 87.8 | 75.2 | 66% | 98 | 0 | 0.0 | ||||||
| 01 | 17:00 | E 7 | 0.00 | Partly Cloudy | SCT015 | 87.8 | 75.2 | 66% | 98 | 0 | 0.0 | ||||||
| 01 | 16:00 | E 8 | 0.00 | Partly Cloudy | SCT012 | 89.6 | 77 | 67% | 103 | 0 | 0.0 | ||||||
| 01 | 15:00 | E 9 | 0.00 | Partly Cloudy | SCT015 | 89.6 | 75.2 | 63% | 100 | 0 | 0.0 | ||||||
| 01 | 14:00 | E 8 | 0.00 | Mostly Cloudy | SCT015 BKN020 | 89.6 | 75.2 | 63% | 100 | 0 | 0.0 | ||||||
| 01 | 13:00 | SE 9 | 0.00 | Mostly Cloudy | SCT012 BKN020 | 89.6 | 77 | 67% | 103 | 0 | 0.0 | ||||||
| 01 | 12:00 | SE 8 | 0.00 | Mostly Cloudy | SCT015 BKN020 | 87.8 | 77 | 70% | 100 | 0 | 0.0 | ||||||
| 01 | 11:05 | SE 8 | 0.00 | Mostly Cloudy | SCT015CB BKN020 | 84.2 | 77 | 79% | 94 | 0 | 0.0 | ||||||
| 01 | 09:00 | SE 12 | 0.00 | Mostly Cloudy | SCT015 BKN020 | 86 | 77 | 75% | 97 | 0 | 0.0 | ||||||
| 01 | 08:30 | E 7 | 0.00 | Partly Cloudy | SCT012 | 84.2 | 78.8 | 84% | 96 | 0 | 0.0 | ||||||
| 01 | 06:30 | E 3 | 0.00 | Partly Cloudy | SCT012 | 84.2 | 73.4 | 70% | 91 | 0 | 0.0 | ||||||
| 31 | 18:00 | E 6 | 0.00 | Partly Cloudy | SCT012CB | 86 | 75.2 | 70% | 95 | 0 | 0.0 | ||||||
| 31 | 17:00 | E 6 | 0.00 | Partly Cloudy | SCT012TCU | 87.8 | 77 | 70% | 100 | 0 | 0.0 | ||||||
| 31 | 16:00 | E 6 | 0.00 | Partly Cloudy | SCT012TCU | 87.8 | 77 | 70% | 100 | 0 | 0.0 | ||||||
| 31 | 15:20 | E 7 | 0.00 | Partly Cloudy | SCT012TCU | 89.6 | 77 | 67% | 103 | 0 | 0.0 | ||||||
| 31 | 13:00 | E 9 | 0.00 | Partly Cloudy | SCT012TCU | 87.8 | 77 | 70% | 100 | 0 | 0.0 | ||||||
| 31 | 12:00 | E 7 | 0.00 | Partly Cloudy | SCT012TCU | 87.8 | 75.2 | 66% | 98 | 0 | 0.0 | ||||||
| 31 | 11:00 | E 9 | 0.00 | Partly Cloudy | SCT012TCU | 87.8 | 77 | 70% | 100 | 0 | 0.0 | ||||||
| 31 | 10:02 | NE 9 | 0.00 | Partly Cloudy | SCT012TCU | 87.8 | 77 | 70% | 100 | 0 | 0.0 | ||||||
| 31 | 09:00 | NE 9 | 0.00 | Partly Cloudy | SCT012TCU | 87.8 | 77 | 70% | 100 | 0 | 0.0 | ||||||
| 31 | 07:05 | NE 3 | 0.00 | Showers in Vicinity | SCT012TCU | 82.4 | 77 | 84% | 91 | 0 | 0.0 | ||||||
| 30 | 21:00 | NE 7 | 0.00 | Partly Cloudy | SCT012 | 86 | 75.2 | 70% | 95 | 0 | 0.0 | ||||||
| 30 | 20:00 | E 7 | 0.00 | Partly Cloudy | SCT012 | 86 | 75.2 | 70% | 95 | 0 | 0.0 | ||||||
| 30 | 17:00 | E 9 | 0.00 | Partly Cloudy | SCT012 | 89.6 | 75.2 | 63% | 100 | 0 | 0.0 | ||||||
| 30 | 16:00 | E 12 | 0.00 | A Few Clouds | FEW015 | 89.6 | 75.2 | 63% | 100 | 0 | 0.0 | ||||||
| 30 | 15:00 | E 8 | 0.00 | Partly Cloudy | SCT015 | 89.6 | 75.2 | 63% | 100 | 0 | 0.0 | ||||||
| 30 | 14:00 | E 10 | 0.00 | Partly Cloudy | SCT015 | 89.6 | 75.2 | 63% | 100 | 0 | 0.0 | ||||||
| 30 | 13:10 | E 9 | 0.00 | Partly Cloudy | SCT015 | 91.4 | 75.2 | 59% | 103 | 0 | 0.0 | ||||||
| 30 | 12:00 | E 12 | 0.00 | Partly Cloudy | SCT015 | 89.6 | 75.2 | 63% | 100 | 0 | 0.0 | ||||||
| 30 | 11:00 | E 12 | 0.00 | Partly Cloudy | SCT015 | 87.8 | 77 | 70% | 100 | 0 | 0.0 | ||||||
| Date | Time (edt) | Wind (mph) | Vis. (mi.) | Weather | Sky Cond. | Air | Dwpt | Max. | Min. | Relative Humidity | Wind Chill (°F) | Heat Index (°F) | altimeter (in) | sea level (mb) | 1 hr | 3 hr | 6 hr |
| 6 hour | |||||||||||||||||
| Temperature (ºF) | Pressure | Precipitation (in) | |||||||||||||||